TAF

Letisková predpoveď TAF

Informácie o správe TAF

24.09.2017 - 05:00 UTC

TAF LZIB 240500Z 2406/2506 30005KT 9999 SCT045 BKN060
    TEMPO 2406/2408 SCT007 BKN045
    PROB40 TEMPO 2408/2416 -RA SCT030 BKN040
    BECMG 2418/2420 04003KT 5000 BR SCT007 BKN020
    TEMPO 2420/2506 1800 BCFG SCT003 BKN007=
TAF LZKZ 240500Z 2406/2506 VRB02KT 8000 FEW005 BKN017
    TEMPO 2406/2408 3000 BR SCT002 BKN011
    BECMG 2407/2409 16003KT 9999 BKN030 SCT060
    TEMPO 2408/2416 -RA
    BECMG 2419/2421 5000 BR SCT007 BKN030
    TEMPO 2421/2506 2500 BCFG SCT003 BKN007=
TAF LZTT 240500Z 2406/2506 26004KT 4000 BR SCT005 BKN010
    TEMPO 2406/2408 VRB02KT 1500 BR BKN003 BKN006
    BECMG 2407/2409 07004KT 9999 SCT030 BKN060
    TEMPO 2408/2416 -SHRA BKN030
    BECMG 2418/2420 24003KT 5000 BR SCT007 BKN012
    TEMPO 2420/2506 2000 BCFG SCT003 BKN006=

24.09.2017 - 05:00 UTC

TAF LZSL 240500Z 2406/2415 VRB02KT 7000 FEW008 BKN020
    TEMPO 2406/2408 4000 BR FEW005 BKN008
    BECMG 2407/2409 9999 SCT030 BKN060
    TEMPO 2409/2415 -RA BKN030=
TAF LZPP 240500Z 2406/2415 VRB02KT 9999 OVC015
    PROB40 2406/2408 4000 BR BKN010
    BECMG 2407/2409 21003KT 9999 SCT030 BKN060
    PROB40 TEMPO 2409/2415 -RA BKN030=
TAF LZZI 240500Z 2406/2415 VRB02KT 6000 SCT005 OVC010
    TEMPO 2406/2408 3000 BR BKN005
    BECMG 2407/2409 9999 SCT030 BKN060
    TEMPO 2409/2415 -RA BKN030=

24.09.2017 - 02:00 UTC

TAF LZSL 240200Z 2403/2412 VRB02KT 7000 FEW008 BKN023
    TEMPO 2403/2408 4000 BR FEW005 BKN008
    PROB30 TEMPO 2403/2407 1500 BR BKN005
    BECMG 2407/2409 9999 SCT030 BKN060
    TEMPO 2409/2412 -RA BKN030=
TAF LZZI 240200Z 2403/2412 VRB02KT 4000 BR BKN005 OVC010
    TEMPO 2403/2408 1500 BR BKN003
    PROB30 TEMPO 2403/2407 0600 -DZ FG BKN001
    BECMG 2407/2409 9999 SCT030 BKN060
    TEMPO 2409/2412 -RA BKN030=

skok na menu ↑


skok na začiatok stránky ↑